createdAt,value
2019-06-15T00:01:33.150Z,98.65
2019-06-15T00:04:01.839Z,100.00
2019-06-15T00:06:30.521Z,100.00
2019-06-15T00:08:59.169Z,100.00
2019-06-15T00:11:27.814Z,100.00
2019-06-15T00:13:56.490Z,100.00
2019-06-15T00:16:25.193Z,100.00
2019-06-15T00:18:53.826Z,100.00
2019-06-15T00:21:22.512Z,100.00
2019-06-15T00:23:51.165Z,100.00
2019-06-15T00:26:19.889Z,100.00
2019-06-15T00:28:48.543Z,100.00
2019-06-15T00:31:17.141Z,100.00
2019-06-15T00:33:45.784Z,100.00
2019-06-15T00:36:14.431Z,100.00
2019-06-15T00:38:43.077Z,100.00
2019-06-15T00:41:11.780Z,100.00
2019-06-15T00:43:40.392Z,100.00
2019-06-15T00:46:09.091Z,100.00
2019-06-15T00:48:37.870Z,100.00
2019-06-15T00:51:06.455Z,100.00
2019-06-15T00:53:35.071Z,100.00
2019-06-15T00:56:03.693Z,100.00
2019-06-15T00:58:32.341Z,100.00
2019-06-15T01:01:00.979Z,100.00
2019-06-15T01:03:29.614Z,100.00
2019-06-15T01:05:58.336Z,100.00
2019-06-15T01:08:26.988Z,100.00
2019-06-15T01:10:55.637Z,100.00
2019-06-15T01:13:24.238Z,100.00
2019-06-15T01:15:52.927Z,100.00
2019-06-15T01:18:21.540Z,100.00
2019-06-15T01:20:50.312Z,100.00
2019-06-15T01:23:18.961Z,100.00
2019-06-15T01:25:47.646Z,100.00
2019-06-15T01:28:16.254Z,100.00
2019-06-15T01:30:44.904Z,100.00
2019-06-15T01:33:13.547Z,100.00
2019-06-15T01:35:42.186Z,100.00
2019-06-15T01:38:10.824Z,100.00
2019-06-15T01:40:39.502Z,100.00
2019-06-15T01:43:08.115Z,100.00
2019-06-15T01:45:36.757Z,100.00
2019-06-15T01:48:05.451Z,100.00
2019-06-15T01:50:34.210Z,100.00
2019-06-15T01:53:02.831Z,100.00
2019-06-15T01:55:31.539Z,100.00
2019-06-15T01:58:00.175Z,100.00
2019-06-15T02:00:30.759Z,100.00
2019-06-15T02:02:59.526Z,100.00
2019-06-15T02:05:28.213Z,100.00
2019-06-15T02:07:56.913Z,100.00
2019-06-15T02:10:29.473Z,100.00
2019-06-15T02:12:58.288Z,100.00
2019-06-15T02:15:26.986Z,100.00
2019-06-15T02:17:55.699Z,100.00
2019-06-15T02:20:24.346Z,100.00
2019-06-15T02:22:53.120Z,100.00
2019-06-15T02:25:35.448Z,100.00
2019-06-15T02:27:56.371Z,100.00
2019-06-15T02:30:29.931Z,100.00
2019-06-15T02:32:58.813Z,100.00
2019-06-15T02:35:27.612Z,100.00
2019-06-15T02:37:56.430Z,100.00
2019-06-15T02:40:25.193Z,100.00
2019-06-15T02:42:54.000Z,100.00
2019-06-15T02:45:22.806Z,100.00
2019-06-15T02:47:51.443Z,100.00
2019-06-15T02:50:20.343Z,100.00
2019-06-15T02:52:49.080Z,100.00
2019-06-15T02:55:18.045Z,100.00
2019-06-15T02:57:46.666Z,100.00
2019-06-15T03:00:21.289Z,100.00
2019-06-15T03:02:49.958Z,100.00
2019-06-15T03:05:18.624Z,100.00
2019-06-15T03:07:47.337Z,100.00
2019-06-15T03:10:15.962Z,100.00
2019-06-15T03:12:44.643Z,100.00
2019-06-15T03:15:13.461Z,100.00
2019-06-15T03:17:42.171Z,100.00
2019-06-15T03:20:11.043Z,100.00
2019-06-15T03:22:39.776Z,100.00
2019-06-15T03:25:10.585Z,100.00
2019-06-15T03:27:39.218Z,100.00
2019-06-15T03:30:08.390Z,100.00
2019-06-15T03:32:37.019Z,100.00
2019-06-15T03:35:06.373Z,100.00
2019-06-15T03:37:34.990Z,100.00
2019-06-15T03:40:03.840Z,100.00
2019-06-15T03:42:32.673Z,100.00
2019-06-15T03:45:01.455Z,100.00
2019-06-15T03:47:30.059Z,100.00
2019-06-15T03:49:58.681Z,100.00
2019-06-15T03:52:27.353Z,100.00
2019-06-15T03:54:56.029Z,100.00
2019-06-15T03:57:24.623Z,100.00
2019-06-15T03:59:53.277Z,100.00
2019-06-15T04:02:21.958Z,100.00
2019-06-15T04:04:52.416Z,100.00
2019-06-15T04:07:21.074Z,100.00
2019-06-15T04:09:49.704Z,100.00
2019-06-15T04:12:18.463Z,100.00
2019-06-15T04:14:47.191Z,100.00
2019-06-15T04:17:15.836Z,100.00
2019-06-15T04:19:44.486Z,100.00
2019-06-15T04:22:13.094Z,100.00
2019-06-15T04:24:41.718Z,100.00
2019-06-15T04:27:10.326Z,100.00
2019-06-15T04:29:38.952Z,100.00
2019-06-15T04:32:07.574Z,100.00
2019-06-15T04:34:36.235Z,100.00
2019-06-15T04:37:04.927Z,100.00
2019-06-15T04:39:33.563Z,100.00
2019-06-15T04:42:02.304Z,100.00
2019-06-15T04:44:30.976Z,100.00
2019-06-15T04:46:59.645Z,100.00
2019-06-15T04:49:28.351Z,100.00
2019-06-15T04:51:57.029Z,100.00
2019-06-15T04:54:25.689Z,100.00
2019-06-15T04:56:54.327Z,100.00
2019-06-15T04:59:23.089Z,100.00
2019-06-15T05:01:51.723Z,100.00
2019-06-15T05:04:20.367Z,100.00
2019-06-15T05:06:49.050Z,100.00
2019-06-15T05:09:17.780Z,100.00
2019-06-15T05:11:46.419Z,100.00
2019-06-15T05:14:15.067Z,100.00
2019-06-15T05:16:43.748Z,100.00
2019-06-15T05:19:12.446Z,100.00
2019-06-15T05:21:41.271Z,99.83
2019-06-15T05:24:09.887Z,98.80
2019-06-15T05:26:38.537Z,98.80
2019-06-15T05:29:07.132Z,97.70
2019-06-15T05:31:35.899Z,95.92
2019-06-15T05:34:04.679Z,95.92
2019-06-15T05:36:33.415Z,94.52
2019-06-15T05:39:02.101Z,94.52
2019-06-15T05:41:30.738Z,93.36
2019-06-15T05:43:59.508Z,91.62
2019-06-15T05:46:28.273Z,91.62
2019-06-15T05:48:56.966Z,91.34
2019-06-15T05:51:25.609Z,90.73
2019-06-15T05:53:54.233Z,91.26
2019-06-15T05:56:22.884Z,91.05
2019-06-15T05:58:51.499Z,91.66
2019-06-15T06:01:20.135Z,91.57
2019-06-15T06:03:48.824Z,91.57
2019-06-15T06:06:17.520Z,90.93
2019-06-15T06:08:46.180Z,90.93
2019-06-15T06:11:14.849Z,91.13
2019-06-15T06:13:43.453Z,89.58
2019-06-15T06:16:12.086Z,89.58
2019-06-15T06:18:40.706Z,89.17
2019-06-15T06:21:09.575Z,89.54
2019-06-15T06:23:38.365Z,88.54
2019-06-15T06:26:07.051Z,88.54
2019-06-15T06:28:35.789Z,89.65
2019-06-15T06:31:04.477Z,88.83
2019-06-15T06:33:33.122Z,87.51
2019-06-15T06:36:01.782Z,85.73
2019-06-15T06:38:30.361Z,86.79
2019-06-15T06:40:59.146Z,85.38
2019-06-15T06:43:27.837Z,82.98
2019-06-15T06:45:56.477Z,82.98
2019-06-15T06:48:25.213Z,81.88
2019-06-15T06:50:53.812Z,82.84
2019-06-15T06:53:22.415Z,81.80
2019-06-15T06:55:51.235Z,81.68
2019-06-15T06:58:19.976Z,80.61
2019-06-15T07:00:48.827Z,80.68
2019-06-15T07:03:17.461Z,79.09
2019-06-15T07:05:46.146Z,79.19
2019-06-15T07:08:14.799Z,80.18
2019-06-15T07:10:43.407Z,81.32
2019-06-15T07:13:12.117Z,80.64
2019-06-15T07:15:40.851Z,80.72
2019-06-15T07:18:09.476Z,82.25
2019-06-15T07:20:38.093Z,81.91
2019-06-15T07:23:06.968Z,79.92
2019-06-15T07:25:35.604Z,80.19
2019-06-15T07:28:08.079Z,77.18
2019-06-15T07:30:34.554Z,78.44
2019-06-15T07:33:03.333Z,78.21
2019-06-15T07:35:31.946Z,78.93
2019-06-15T07:38:00.665Z,79.59
2019-06-15T07:40:29.287Z,78.37
2019-06-15T07:42:57.943Z,77.33
2019-06-15T07:45:26.553Z,75.95
2019-06-15T07:47:55.191Z,75.43
2019-06-15T07:50:23.840Z,75.69
2019-06-15T07:52:52.476Z,74.73
2019-06-15T07:55:29.341Z,72.76
2019-06-15T07:57:58.023Z,73.24
2019-06-15T08:00:26.733Z,73.75
2019-06-15T08:02:55.439Z,74.78
2019-06-15T08:05:24.059Z,74.29
2019-06-15T08:07:52.668Z,74.87
2019-06-15T08:10:21.507Z,74.70
2019-06-15T08:12:50.275Z,73.46
2019-06-15T08:15:18.978Z,72.94
2019-06-15T08:17:47.585Z,73.05
2019-06-15T08:20:18.019Z,72.25
2019-06-15T08:22:46.634Z,71.73
2019-06-15T08:25:15.352Z,72.96
2019-06-15T08:27:43.959Z,70.45
2019-06-15T08:30:12.849Z,68.72
2019-06-15T08:32:41.598Z,66.50
2019-06-15T08:35:10.305Z,66.67
2019-06-15T08:37:38.902Z,66.87
2019-06-15T08:40:07.928Z,67.70
2019-06-15T08:42:36.543Z,67.35
2019-06-15T08:45:05.901Z,69.24
2019-06-15T08:47:34.531Z,69.28
2019-06-15T08:50:03.338Z,70.62
2019-06-15T08:52:32.022Z,70.72
2019-06-15T08:55:00.959Z,71.38
2019-06-15T08:57:29.812Z,71.01
2019-06-15T08:59:58.464Z,70.80
2019-06-15T09:02:27.101Z,69.46
2019-06-15T09:04:55.725Z,69.69
2019-06-15T09:07:24.337Z,68.89
2019-06-15T09:09:52.979Z,70.00
2019-06-15T09:12:24.844Z,68.05
2019-06-15T09:14:52.037Z,67.68
2019-06-15T09:17:20.925Z,66.44
2019-06-15T09:19:49.525Z,65.63
2019-06-15T09:22:18.170Z,66.42
2019-06-15T09:24:46.793Z,65.41
2019-06-15T09:27:15.427Z,67.00
2019-06-15T09:29:44.038Z,66.70
2019-06-15T09:32:12.728Z,65.64
2019-06-15T09:34:41.528Z,65.85
2019-06-15T09:37:10.164Z,64.34
2019-06-15T09:39:38.822Z,64.81
2019-06-15T09:42:07.531Z,64.25
2019-06-15T09:44:36.219Z,65.01
2019-06-15T09:47:04.979Z,64.70
2019-06-15T09:49:33.608Z,64.66
2019-06-15T09:52:02.247Z,65.11
2019-06-15T09:54:30.948Z,64.85
2019-06-15T09:56:59.638Z,66.46
2019-06-15T09:59:28.296Z,65.78
2019-06-15T10:01:56.929Z,65.05
2019-06-15T10:04:25.581Z,65.50
2019-06-15T10:06:54.215Z,64.23
2019-06-15T10:09:22.848Z,65.33
2019-06-15T10:11:51.531Z,66.59
2019-06-15T10:14:20.238Z,64.92
2019-06-15T10:16:48.948Z,63.95
2019-06-15T10:19:20.441Z,63.84
2019-06-15T10:21:49.040Z,64.82
2019-06-15T10:24:17.653Z,64.59
2019-06-15T10:26:46.268Z,63.98
2019-06-15T10:29:14.972Z,65.81
2019-06-15T10:31:43.582Z,65.00
2019-06-15T10:34:12.214Z,66.34
2019-06-15T10:36:40.833Z,65.58
2019-06-15T10:39:09.540Z,67.04
2019-06-15T10:41:38.329Z,66.01
2019-06-15T10:44:07.037Z,64.22
2019-06-15T10:46:35.739Z,64.67
2019-06-15T10:49:04.434Z,64.09
2019-06-15T10:51:33.143Z,66.46
2019-06-15T10:54:01.903Z,65.95
2019-06-15T10:56:30.538Z,67.52
2019-06-15T10:58:59.167Z,66.66
2019-06-15T11:01:27.811Z,65.54
2019-06-15T11:03:56.521Z,63.17
2019-06-15T11:06:25.214Z,63.51
2019-06-15T11:08:53.911Z,63.89
2019-06-15T11:11:23.016Z,61.34
2019-06-15T11:13:52.205Z,58.42
2019-06-15T11:16:21.009Z,59.81
2019-06-15T11:18:49.730Z,58.23
2019-06-15T11:21:18.353Z,56.55
2019-06-15T11:23:47.069Z,54.20
2019-06-15T11:26:15.789Z,56.45
2019-06-15T11:28:44.543Z,56.89
2019-06-15T11:31:13.187Z,55.91
2019-06-15T11:33:41.840Z,56.23
2019-06-15T11:36:10.758Z,56.37
2019-06-15T11:38:39.497Z,54.95
2019-06-15T11:41:08.178Z,53.04
2019-06-15T11:43:36.880Z,55.29
2019-06-15T11:46:05.598Z,53.15
2019-06-15T11:48:34.435Z,53.41
2019-06-15T11:51:03.477Z,53.20
2019-06-15T11:53:32.142Z,53.05
2019-06-15T11:56:00.852Z,54.48
2019-06-15T11:58:29.532Z,54.83
2019-06-15T12:00:58.163Z,55.93
2019-06-15T12:03:26.788Z,57.04
2019-06-15T12:05:55.919Z,54.37
2019-06-15T12:08:24.745Z,52.39
2019-06-15T12:10:53.512Z,52.67
2019-06-15T12:13:22.196Z,54.56
2019-06-15T12:15:50.885Z,55.72
2019-06-15T12:18:19.524Z,51.12
2019-06-15T12:20:48.219Z,51.51
2019-06-15T12:23:16.836Z,50.03
2019-06-15T12:25:45.546Z,51.18
2019-06-15T12:28:14.247Z,50.63
2019-06-15T12:30:47.195Z,53.17
2019-06-15T12:33:13.357Z,52.48
2019-06-15T12:35:41.971Z,53.10
2019-06-15T12:38:10.673Z,54.60
2019-06-15T12:40:39.333Z,54.20
2019-06-15T12:43:08.006Z,54.80
2019-06-15T12:45:36.648Z,54.66
2019-06-15T12:48:05.345Z,54.88
2019-06-15T12:50:34.082Z,55.91
2019-06-15T12:53:02.751Z,54.24
2019-06-15T12:55:31.768Z,54.41
2019-06-15T12:58:00.398Z,53.61
2019-06-15T13:00:35.275Z,54.51
2019-06-15T13:03:04.063Z,54.42
2019-06-15T13:05:33.362Z,51.35
2019-06-15T13:08:04.178Z,51.02
2019-06-15T13:10:32.855Z,51.63
2019-06-15T13:13:01.479Z,50.17
2019-06-15T13:15:30.239Z,48.94
2019-06-15T13:17:58.911Z,47.09
2019-06-15T13:20:29.812Z,48.66
2019-06-15T13:22:58.638Z,48.00
2019-06-15T13:25:27.393Z,49.11
2019-06-15T13:27:56.112Z,48.83
2019-06-15T13:30:24.800Z,48.46
2019-06-15T13:32:53.485Z,50.66
2019-06-15T13:35:22.175Z,49.96
2019-06-15T13:37:50.829Z,48.24
2019-06-15T13:40:19.504Z,50.47
2019-06-15T13:42:48.143Z,48.84
2019-06-15T13:45:17.120Z,49.22
2019-06-15T13:47:45.750Z,48.31
2019-06-15T13:50:15.437Z,49.85
2019-06-15T13:52:44.095Z,50.74
2019-06-15T13:55:15.776Z,50.55
2019-06-15T13:57:44.407Z,47.82
2019-06-15T14:00:13.110Z,49.07
2019-06-15T14:02:41.769Z,48.13
2019-06-15T14:05:11.455Z,48.00
2019-06-15T14:07:40.071Z,49.81
2019-06-15T14:10:08.834Z,50.34
2019-06-15T14:12:37.694Z,49.26
2019-06-15T14:15:07.576Z,50.23
2019-06-15T14:17:39.677Z,49.04
2019-06-15T14:20:07.361Z,48.10
2019-06-15T14:22:36.001Z,46.99
2019-06-15T14:25:05.468Z,48.90
2019-06-15T14:27:34.200Z,49.02
2019-06-15T14:30:02.910Z,49.22
2019-06-15T14:32:31.547Z,48.85
2019-06-15T14:35:00.176Z,47.35
2019-06-15T14:37:28.885Z,47.04
2019-06-15T14:39:57.694Z,45.07
2019-06-15T14:42:26.432Z,45.16
2019-06-15T14:44:55.181Z,45.82
2019-06-15T14:47:23.846Z,45.70
2019-06-15T14:49:52.473Z,44.40
2019-06-15T14:52:21.133Z,45.46
2019-06-15T14:54:49.739Z,44.20
2019-06-15T14:57:18.375Z,45.31
2019-06-15T14:59:59.697Z,43.95
2019-06-15T15:02:17.677Z,47.24
2019-06-15T15:04:46.522Z,44.50
2019-06-15T15:07:16.941Z,45.32
2019-06-15T15:09:46.902Z,43.75
2019-06-15T15:12:16.230Z,42.99
2019-06-15T15:14:46.965Z,44.81
2019-06-15T15:17:17.215Z,44.20
2019-06-15T15:19:46.630Z,44.23
2019-06-15T15:22:16.009Z,47.40
2019-06-15T15:24:44.793Z,45.25
2019-06-15T15:27:13.498Z,48.35
2019-06-15T15:29:42.319Z,43.17
2019-06-15T15:32:23.961Z,44.96
2019-06-15T15:34:41.574Z,43.54
2019-06-15T15:37:10.411Z,45.55
2019-06-15T15:39:39.246Z,46.07
2019-06-15T15:42:08.043Z,47.16
2019-06-15T15:44:36.677Z,48.42
2019-06-15T15:47:07.117Z,47.56
2019-06-15T15:49:36.655Z,47.27
2019-06-15T15:52:05.440Z,44.94
2019-06-15T15:54:36.140Z,44.36
2019-06-15T15:57:06.465Z,44.21
2019-06-15T15:59:36.338Z,44.63
2019-06-15T16:02:06.688Z,44.29
2019-06-15T16:04:37.110Z,44.78
2019-06-15T16:07:06.581Z,42.28
2019-06-15T16:09:36.043Z,40.85
2019-06-15T16:12:06.988Z,41.50
2019-06-15T16:14:36.940Z,42.00
2019-06-15T16:17:06.724Z,40.29
2019-06-15T16:19:35.668Z,39.42
2019-06-15T16:22:14.822Z,39.65
2019-06-15T16:24:43.578Z,40.52
2019-06-15T16:27:12.477Z,44.01
2019-06-15T16:29:41.271Z,44.99
2019-06-15T16:32:10.075Z,45.69
2019-06-15T16:34:38.869Z,45.93
2019-06-15T16:37:07.709Z,45.21
2019-06-15T16:39:36.492Z,47.18
2019-06-15T16:42:06.564Z,49.59
2019-06-15T16:44:36.566Z,46.73
2019-06-15T16:47:06.059Z,44.82
2019-06-15T16:49:39.938Z,44.14
2019-06-15T16:52:08.827Z,44.92
2019-06-15T16:54:37.651Z,44.86
2019-06-15T16:57:06.550Z,47.35
2019-06-15T16:59:36.347Z,44.71
2019-06-15T17:02:06.459Z,43.81
2019-06-15T17:04:36.380Z,43.00
2019-06-15T17:07:07.135Z,42.95
2019-06-15T17:09:36.326Z,42.33
2019-06-15T17:12:06.571Z,40.21
2019-06-15T17:14:36.466Z,39.26
2019-06-15T17:17:05.657Z,40.40
2019-06-15T17:19:36.283Z,39.73
2019-06-15T17:22:14.733Z,39.88
2019-06-15T17:24:36.923Z,40.31
2019-06-15T17:27:06.179Z,39.39
2019-06-15T17:29:35.065Z,39.62
2019-06-15T17:32:06.340Z,40.11
2019-06-15T17:34:36.357Z,39.27
2019-06-15T17:37:06.814Z,39.93
2019-06-15T17:39:37.522Z,40.21
2019-06-15T17:42:07.014Z,39.48
2019-06-15T17:44:37.002Z,39.83
2019-06-15T17:47:07.312Z,39.33
2019-06-15T17:49:37.171Z,41.46
2019-06-15T17:52:06.553Z,41.93
2019-06-15T17:54:37.348Z,43.12
2019-06-15T17:57:05.908Z,43.34
2019-06-15T17:59:36.443Z,43.76
2019-06-15T18:02:06.313Z,44.54
2019-06-15T18:04:37.167Z,45.29
2019-06-15T18:07:05.723Z,45.31
2019-06-15T18:09:36.734Z,46.37
2019-06-15T18:12:06.578Z,46.07
2019-06-15T18:14:36.804Z,47.60
2019-06-15T18:17:07.283Z,46.44
2019-06-15T18:19:38.635Z,47.15
2019-06-15T18:22:07.399Z,49.15
2019-06-15T18:24:37.213Z,49.96
2019-06-15T18:27:08.951Z,48.98
2019-06-15T18:29:36.887Z,50.52
2019-06-15T18:32:06.435Z,49.08
2019-06-15T18:34:36.812Z,48.78
2019-06-15T18:37:07.728Z,48.53
2019-06-15T18:39:36.945Z,48.84
2019-06-15T18:42:07.710Z,52.06
2019-06-15T18:44:36.687Z,52.43
2019-06-15T18:47:07.057Z,50.51
2019-06-15T18:49:36.315Z,51.71
2019-06-15T18:52:06.173Z,52.91
2019-06-15T18:54:36.396Z,54.45
2019-06-15T18:57:07.418Z,56.22
2019-06-15T18:59:36.533Z,56.13
2019-06-15T19:02:06.660Z,56.20
2019-06-15T19:04:35.609Z,55.21
2019-06-15T19:07:06.507Z,54.68
2019-06-15T19:09:34.772Z,55.96
2019-06-15T19:12:06.892Z,56.99
2019-06-15T19:14:36.147Z,58.19
2019-06-15T19:17:06.036Z,59.08
2019-06-15T19:19:37.552Z,59.08
2019-06-15T19:22:06.522Z,59.17
2019-06-15T19:24:36.839Z,59.91
2019-06-15T19:27:08.112Z,61.16
2019-06-15T19:29:36.387Z,61.59
2019-06-15T19:32:07.930Z,62.10
2019-06-15T19:34:44.224Z,62.58
2019-06-15T19:37:06.819Z,62.70
2019-06-15T19:39:36.922Z,63.29
2019-06-15T19:42:12.104Z,63.48
2019-06-15T19:44:40.765Z,64.28
2019-06-15T19:47:09.528Z,64.50
2019-06-15T19:49:38.198Z,65.94
2019-06-15T19:52:07.123Z,66.42
2019-06-15T19:54:36.574Z,67.13
2019-06-15T19:57:06.814Z,67.32
2019-06-15T19:59:36.666Z,67.91
2019-06-15T20:02:07.127Z,68.50
2019-06-15T20:04:36.282Z,69.26
2019-06-15T20:07:06.556Z,69.20
2019-06-15T20:09:37.056Z,69.46
2019-06-15T20:12:06.605Z,69.62
2019-06-15T20:14:36.736Z,69.94
2019-06-15T20:17:07.367Z,69.89
2019-06-15T20:19:37.656Z,70.73
2019-06-15T20:22:06.830Z,71.59
2019-06-15T20:24:36.493Z,72.04
2019-06-15T20:27:09.709Z,72.49
2019-06-15T20:29:36.246Z,72.73
2019-06-15T20:32:06.849Z,72.83
2019-06-15T20:34:37.056Z,73.18
2019-06-15T20:37:06.089Z,74.92
2019-06-15T20:39:36.261Z,75.68
2019-06-15T20:42:07.887Z,77.00
2019-06-15T20:44:36.834Z,78.11
2019-06-15T20:47:06.554Z,78.00
2019-06-15T20:49:36.998Z,78.46
2019-06-15T20:52:07.079Z,79.08
2019-06-15T20:54:36.157Z,78.83
2019-06-15T20:57:06.399Z,79.27
2019-06-15T20:59:37.057Z,79.01
2019-06-15T21:02:06.707Z,78.48
2019-06-15T21:04:36.356Z,78.75
2019-06-15T21:07:06.597Z,78.27
2019-06-15T21:09:36.409Z,78.74
2019-06-15T21:12:06.680Z,80.08
2019-06-15T21:14:36.615Z,79.21
2019-06-15T21:17:06.738Z,79.12
2019-06-15T21:19:36.196Z,82.49
2019-06-15T21:22:06.383Z,82.49
2019-06-15T21:24:37.333Z,81.86
2019-06-15T21:27:06.287Z,81.86
2019-06-15T21:29:36.984Z,82.85
2019-06-15T21:32:05.917Z,85.05
2019-06-15T21:34:36.170Z,85.33
2019-06-15T21:37:06.541Z,85.33
2019-06-15T21:39:36.516Z,84.65
2019-06-15T21:42:05.709Z,84.50
2019-06-15T21:44:36.154Z,84.50
2019-06-15T21:47:06.894Z,83.72
2019-06-15T21:49:35.897Z,83.61
2019-06-15T21:52:06.949Z,84.60
2019-06-15T21:54:36.143Z,84.22
2019-06-15T21:57:07.030Z,84.22
2019-06-15T21:59:36.987Z,86.92
2019-06-15T22:02:07.078Z,88.40
2019-06-15T22:04:36.830Z,88.92
2019-06-15T22:07:06.572Z,88.92
2019-06-15T22:09:36.363Z,87.52
2019-06-15T22:12:06.878Z,88.12
2019-06-15T22:14:35.864Z,86.28
2019-06-15T22:17:06.785Z,86.28
2019-06-15T22:19:36.881Z,88.75
2019-06-15T22:22:07.456Z,88.75
2019-06-15T22:24:36.361Z,88.00
2019-06-15T22:27:06.648Z,88.00
2019-06-15T22:29:36.469Z,89.00
2019-06-15T22:32:06.891Z,89.34
2019-06-15T22:34:36.388Z,88.46
2019-06-15T22:37:06.887Z,88.25
2019-06-15T22:39:37.047Z,88.25
2019-06-15T22:42:06.846Z,88.09
2019-06-15T22:44:37.198Z,88.23
2019-06-15T22:47:06.934Z,89.77
2019-06-15T22:49:36.077Z,89.77
2019-06-15T22:52:06.594Z,89.17
2019-06-15T22:54:37.669Z,89.17
2019-06-15T22:57:06.285Z,90.49
2019-06-15T22:59:35.037Z,89.30
2019-06-15T23:02:03.918Z,89.30
2019-06-15T23:04:32.637Z,88.69
2019-06-15T23:07:01.428Z,90.02
2019-06-15T23:09:30.172Z,89.09
2019-06-15T23:11:58.913Z,90.37
2019-06-15T23:14:27.600Z,91.64
2019-06-15T23:16:56.856Z,91.53
2019-06-15T23:19:26.210Z,92.48
2019-06-15T23:21:57.215Z,92.48
2019-06-15T23:24:27.196Z,91.79
2019-06-15T23:26:57.095Z,92.26
2019-06-15T23:29:27.151Z,92.01
2019-06-15T23:31:57.227Z,92.96
2019-06-15T23:34:27.090Z,92.80
2019-06-15T23:37:00.711Z,92.80
2019-06-15T23:39:28.350Z,93.24
2019-06-15T23:41:59.457Z,93.53
2019-06-15T23:44:28.249Z,93.53
2019-06-15T23:46:56.949Z,93.53
2019-06-15T23:49:26.941Z,93.37
2019-06-15T23:51:57.306Z,93.37
2019-06-15T23:54:27.869Z,92.87
2019-06-15T23:56:56.999Z,92.87
2019-06-15T23:59:26.446Z,91.29
